Nehawka, Nebraska
Current Conditions -  °F | °C
As of 4:35 PM on Sunday 21 Dec 2014 (Local Time) from KPMV Reporting Station
Haze Haze  
Wind Chill: 32°   Ceiling: 500
Heat Index: 40°   Visibility: 3mi
Dew Point: 38°   Wind: 15mph
Humidity: 92%   Direction: 170°S
Pressure: 29.73"   Gusts: 18mph
Location:  40.83°N, 95.99°W
Report Text: KPMV 212235Z AUTO 17013G16KT 3SM BR OVC005 05/04 A2973 RMK AO2 T00470035
Loading
Personal Weather Stations






























Interactive Weather Map New forecast layout! Learn more

10-Day Weather Forecast

Advertisements
Track Severe Weather on mobile